Relevés horaires Matro (Suisse)


Relevés horaires à Matro - Jeudi 25 Mars 2021
Heure UTC1 Température [°C] Vent [km/h] Hum. [%] Pres.4 [hPa] Visi. [Km] Nébu. [octa] Préc.5 [mm] Cond.
2m. Res. Ros. Dir.2 Vit. Moy. Raf.3
23:00 -0.6 -3.2 -4.4 NNO 7.4 -- 9.3 75 850(0.1/3h) -- -- -- --
22:00 -0.4 -3 -5.5 N 7.4 -- 13.0 68 850(0.5/3h) -- -- -- --
21:00 -0.7 -3.4 -3.7 N 7.4 -- 24.1 80 850(1.0/3h) -- -- -- --
20:00 0.2 -1.6 -5.3 ONO 5.6 -- 18.5 66 850(0.9/3h) -- -- -- --
19:00 0.5 -3.4 -7.6 OSO 13.0 -- 24.1 54 850(0.9/3h) -- -- -- --
18:00 0.9 -3.6 -7.6 SO 16.7 -- 31.5 53 850(0.3/3h) -- -- -- --
17:00 2.3 -0.4 -6.7 S 9.3 -- 27.8 51 850(0.0/3h) -- -- -- --
16:00 3.2 -1 -8.1 S 18.5 -- 31.5 43 850(-0.5/3h) -- -- -- --
15:00 3.4 -0.8 -8.6 S 18.5 -- 31.5 41 850(-0.8/3h) -- -- -- --
14:00 3.1 -1.1 -9.9 S 18.5 -- 31.5 38 850(-1.0/3h) -- -- -- --
13:00 3.5 -0.6 -10.7 S 18.5 -- 31.5 34 850(-1.0/3h) -- -- -- --
12:00 3.5 0.2 -10.8 SSE 13.0 -- 22.2 34 850(-0.5/3h) -- -- -- --
11:00 2.5 -0.6 -11.4 S 11.1 -- 18.5 35 850(0.2/3h) -- -- -- --
10:00 2.4 2.4 -11.7 NE 3.7 -- 11.1 34 850(0.8/3h) -- -- -- --
09:00 1.7 1.7 -13.3 ONO 3.7 -- 11.1 32 850(0.9/3h) -- -- -- --
08:00 1.6 1.6 -13.6 N 3.7 -- 11.1 31 850(0.7/3h) -- -- -- --
07:00 0.9 0.9 -14.5 SSO 1.9 -- 9.3 30 850(0.1/3h) -- -- -- --
06:00 0.8 -1.6 -14.7 NNO 7.4 -- 22.2 30 850(0.1/3h) -- -- -- --
05:00 0.5 -3 -14.6 NNO 11.1 -- 13.0 31 850(-0.4/3h) -- -- -- --
04:00 0.5 -2.5 -13.7 NO 9.3 -- 16.7 33 850(-0.7/3h) -- -- -- --
03:00 0.7 -3.5 -14.4 NO 14.8 -- 22.2 31 850(-0.8/3h) -- -- -- --
02:00 0.6 -3.3 -12.9 NO 13.0 -- 18.5 35 850(-0.9/3h) -- -- -- --
01:00 0.9 -3.3 -13.5 ONO 14.8 -- 22.2 33 850(-0.3/3h) -- -- -- --
00:00 0.4 -4.5 -14.8 NNO 18.5 -- 33.3 31 850(-0.3/3h) -- -- -- --

1 Coordinated Universal Time. Actuellement il est 00:00 locale et 22:00 UTC.

2 Le vent souffle depuis la direction indiquée vers la direction oposée.

3 Les rafales max. sont disponible 40 min après l'heure du relevé.

4 Pour les stations d'altitude (plus de 600m) le géopotentiel du niveau le plus proche de la pression obligatoire est indiqué.

5 Les stations disposant d'un diffuseur peuvent indiquer "trace". Cela signifie que des précipitations ont touchés le sol mais que la quantité est inférieure à 0.1 mm.

Copyright

Les données affichées sur cette page sont la propriété exclusive de Météo Suisse.

Récapitulatif de la journée
Température [°C] Vent [km/h] Ensoleillement4 [h] Precipitations totale5 [mm] Pression [Hpa]
Min1 Max.2 Moy.3 Max. Min Max.
0.2 4.2 0 33.3 11 h 30 min 0 850.0 850.0

1 Température minimale relevée entre 18:00 UTC la veille et 18:00 UTC le jour donné.

2 Température maximale relevée entre 06:00 UTC le jour donné et 06:00 UTC le lendemain.

3 Vent moyen de la journée basé sur les relevés horaires.

4 Ensoleillement en heures relevé entre 06:00 UTC la veille et 06:00 UTC le jour donné.

5 Précipitations totales tombées entre 06:00 UTC la jour donné et 06:00 UTC le lendemain.

Graphiques horaires